createdAt,value
2022-12-29T00:01:21.170Z,98665.00
2022-12-29T00:04:14.941Z,98659.00
2022-12-29T00:07:05.641Z,98658.00
2022-12-29T00:09:53.263Z,98655.00
2022-12-29T00:12:59.559Z,98656.00
2022-12-29T00:15:48.532Z,98656.00
2022-12-29T00:18:36.170Z,98655.00
2022-12-29T00:21:45.009Z,98645.00
2022-12-29T00:24:51.074Z,98642.00
2022-12-29T00:28:01.597Z,98641.00
2022-12-29T00:31:11.302Z,98640.00
2022-12-29T00:34:17.438Z,98649.00
2022-12-29T00:37:05.043Z,98641.00
2022-12-29T00:40:30.957Z,98625.00
2022-12-29T00:43:37.065Z,98624.00
2022-12-29T00:46:24.696Z,98628.00
2022-12-29T00:49:33.958Z,98620.00
2022-12-29T00:52:21.908Z,98628.00
2022-12-29T00:55:09.634Z,98635.00
2022-12-29T00:57:57.088Z,98615.00
2022-12-29T01:00:44.659Z,98619.00
2022-12-29T01:03:33.989Z,98631.00
2022-12-29T01:06:21.569Z,98626.00
2022-12-29T01:09:29.224Z,98628.00
2022-12-29T01:12:16.755Z,98628.00
2022-12-29T01:15:11.760Z,98631.00
2022-12-29T01:17:59.284Z,98637.00
2022-12-29T01:20:46.889Z,98631.00
2022-12-29T01:23:34.450Z,98630.00
2022-12-29T01:26:22.385Z,98619.00
2022-12-29T01:29:10.358Z,98617.00
2022-12-29T01:31:57.956Z,98627.00
2022-12-29T01:34:48.181Z,98622.00
2022-12-29T01:37:35.797Z,98619.00
2022-12-29T01:40:23.330Z,98618.00
2022-12-29T01:43:15.211Z,98619.00
2022-12-29T01:46:03.063Z,98603.00
2022-12-29T01:49:13.375Z,98614.00
2022-12-29T01:52:07.644Z,98609.00
2022-12-29T01:54:58.444Z,98604.00
2022-12-29T01:57:52.289Z,98596.00
2022-12-29T02:00:40.421Z,98595.00
2022-12-29T02:03:33.656Z,98590.00
2022-12-29T02:06:49.386Z,98596.00
2022-12-29T02:09:37.636Z,98579.00
2022-12-29T02:12:26.190Z,98582.00
2022-12-29T02:15:14.837Z,98585.00
2022-12-29T02:18:35.780Z,98580.00
2022-12-29T02:21:48.150Z,98573.00
2022-12-29T02:25:22.165Z,98581.00
2022-12-29T02:28:59.682Z,98581.00
2022-12-29T02:32:43.515Z,98565.00
2022-12-29T02:35:55.031Z,98569.00
2022-12-29T02:39:01.864Z,98561.00
2022-12-29T02:42:10.122Z,98568.00
2022-12-29T02:45:14.004Z,98564.00
2022-12-29T02:48:24.928Z,98558.00
2022-12-29T02:51:57.008Z,98571.00
2022-12-29T02:54:44.951Z,98566.00
2022-12-29T02:57:36.357Z,98558.00
2022-12-29T03:00:23.972Z,98560.00
2022-12-29T03:03:42.892Z,98568.00
2022-12-29T03:07:20.446Z,98564.00
2022-12-29T03:10:51.791Z,98562.00
2022-12-29T03:14:12.314Z,98544.00
2022-12-29T03:17:11.469Z,98546.00
2022-12-29T03:20:11.405Z,98556.00
2022-12-29T03:23:04.342Z,98551.00
2022-12-29T03:25:58.404Z,98552.00
2022-12-29T03:28:57.694Z,98554.00
2022-12-29T03:31:50.094Z,98553.00
2022-12-29T03:34:39.939Z,98542.00
2022-12-29T03:37:36.798Z,98550.00
2022-12-29T03:40:26.737Z,98543.00
2022-12-29T03:43:15.590Z,98541.00
2022-12-29T03:46:03.130Z,98541.00
2022-12-29T03:48:50.715Z,98549.00
2022-12-29T03:51:38.302Z,98548.00
2022-12-29T03:54:26.138Z,98547.00
2022-12-29T03:57:13.628Z,98551.00
2022-12-29T04:00:02.368Z,98545.00
2022-12-29T04:02:50.119Z,98543.00
2022-12-29T04:05:37.988Z,98538.00
2022-12-29T04:08:25.557Z,98540.00
2022-12-29T04:11:13.089Z,98530.00
2022-12-29T04:14:00.686Z,98523.00
2022-12-29T04:16:48.243Z,98528.00
2022-12-29T04:19:35.874Z,98526.00
2022-12-29T04:22:23.412Z,98537.00
2022-12-29T04:25:11.262Z,98534.00
2022-12-29T04:27:58.985Z,98541.00
2022-12-29T04:30:47.901Z,98547.00
2022-12-29T04:33:35.489Z,98547.00
2022-12-29T04:36:29.502Z,98544.00
2022-12-29T04:39:17.529Z,98549.00
2022-12-29T04:42:05.950Z,98546.00
2022-12-29T04:44:53.494Z,98552.00
2022-12-29T04:47:40.994Z,98552.00
2022-12-29T04:50:28.656Z,98558.00
2022-12-29T04:53:17.856Z,98556.00
2022-12-29T04:56:06.784Z,98554.00
2022-12-29T04:58:54.296Z,98554.00
2022-12-29T05:01:43.670Z,98561.00
2022-12-29T05:04:31.234Z,98560.00
2022-12-29T05:07:20.052Z,98569.00
2022-12-29T05:10:09.230Z,98566.00
2022-12-29T05:12:56.808Z,98565.00
2022-12-29T05:16:02.548Z,98556.00
2022-12-29T05:18:50.059Z,98564.00
2022-12-29T05:21:37.638Z,98562.00
2022-12-29T05:24:25.218Z,98563.00
2022-12-29T05:27:12.743Z,98563.00
2022-12-29T05:30:00.447Z,98562.00
2022-12-29T05:32:47.997Z,98562.00
2022-12-29T05:35:35.621Z,98557.00
2022-12-29T05:38:23.247Z,98558.00
2022-12-29T05:41:11.190Z,98551.00
2022-12-29T05:43:58.797Z,98556.00
2022-12-29T05:46:46.351Z,98553.00
2022-12-29T05:49:34.063Z,98550.00
2022-12-29T05:52:21.605Z,98544.00
2022-12-29T05:55:10.294Z,98541.00
2022-12-29T05:57:58.223Z,98544.00
2022-12-29T06:00:46.185Z,98543.00
2022-12-29T06:03:33.741Z,98543.00
2022-12-29T06:06:21.461Z,98529.00
2022-12-29T06:09:12.068Z,98530.00
2022-12-29T06:11:59.631Z,98534.00
2022-12-29T06:14:47.143Z,98528.00
2022-12-29T06:17:34.786Z,98518.00
2022-12-29T06:20:22.266Z,98513.00
2022-12-29T06:23:10.390Z,98522.00
2022-12-29T06:25:58.540Z,98530.00
2022-12-29T06:28:46.136Z,98523.00
2022-12-29T06:31:33.725Z,98516.00
2022-12-29T06:34:21.493Z,98523.00
2022-12-29T06:37:09.097Z,98518.00
2022-12-29T06:39:56.736Z,98515.00
2022-12-29T06:42:44.223Z,98521.00
2022-12-29T06:45:31.799Z,98529.00
2022-12-29T06:48:19.390Z,98529.00
2022-12-29T06:51:06.935Z,98524.00
2022-12-29T06:53:54.452Z,98531.00
2022-12-29T06:56:42.118Z,98516.00
2022-12-29T06:59:29.701Z,98517.00
2022-12-29T07:02:19.422Z,98522.00
2022-12-29T07:05:08.491Z,98519.00
2022-12-29T07:07:56.700Z,98514.00
2022-12-29T07:10:44.217Z,98526.00
2022-12-29T07:13:31.841Z,98506.00
2022-12-29T07:16:19.523Z,98508.00
2022-12-29T07:19:07.112Z,98519.00
2022-12-29T07:21:56.287Z,98540.00
2022-12-29T07:24:44.415Z,98516.00
2022-12-29T07:27:31.971Z,98525.00
2022-12-29T07:30:19.876Z,98534.00
2022-12-29T07:33:07.607Z,98527.00
2022-12-29T07:35:55.104Z,98511.00
2022-12-29T07:38:43.913Z,98514.00
2022-12-29T07:41:31.561Z,98528.00
2022-12-29T07:44:19.150Z,98517.00
2022-12-29T07:47:06.678Z,98505.00
2022-12-29T07:49:54.245Z,98523.00
2022-12-29T07:52:41.725Z,98524.00
2022-12-29T07:55:29.832Z,98521.00
2022-12-29T07:58:17.419Z,98520.00
2022-12-29T08:01:06.555Z,98516.00
2022-12-29T08:03:57.506Z,98516.00
2022-12-29T08:06:46.870Z,98519.00
2022-12-29T08:09:34.421Z,98516.00
2022-12-29T08:12:22.060Z,98517.00
2022-12-29T08:15:13.114Z,98509.00
2022-12-29T08:18:01.198Z,98518.00
2022-12-29T08:20:52.527Z,98506.00
2022-12-29T08:23:43.015Z,98528.00
2022-12-29T08:26:30.608Z,98540.00
2022-12-29T08:29:18.193Z,98542.00
2022-12-29T08:32:05.923Z,98544.00
2022-12-29T08:34:53.472Z,98538.00
2022-12-29T08:37:40.985Z,98538.00
2022-12-29T08:40:28.444Z,98538.00
2022-12-29T08:43:18.672Z,98545.00
2022-12-29T08:46:06.474Z,98548.00
2022-12-29T08:48:55.219Z,98542.00
2022-12-29T08:51:42.799Z,98535.00
2022-12-29T08:54:30.284Z,98517.00
2022-12-29T08:57:17.847Z,98516.00
2022-12-29T09:00:07.062Z,98530.00
2022-12-29T09:02:54.722Z,98540.00
2022-12-29T09:05:42.435Z,98550.00
2022-12-29T09:08:30.067Z,98549.00
2022-12-29T09:11:22.144Z,98550.00
2022-12-29T09:14:09.996Z,98540.00
2022-12-29T09:17:16.281Z,98554.00
2022-12-29T09:20:04.960Z,98560.00
2022-12-29T09:22:52.646Z,98551.00
2022-12-29T09:25:40.174Z,98542.00
2022-12-29T09:28:30.075Z,98555.00
2022-12-29T09:31:17.655Z,98525.00
2022-12-29T09:34:05.200Z,98526.00
2022-12-29T09:36:52.740Z,98540.00
2022-12-29T09:39:40.192Z,98555.00
2022-12-29T09:43:05.543Z,98557.00
2022-12-29T09:46:17.103Z,98543.00
2022-12-29T09:49:41.014Z,98535.00
2022-12-29T09:52:41.736Z,98504.00
2022-12-29T09:55:46.036Z,98522.00
2022-12-29T09:58:53.396Z,98521.00
2022-12-29T10:02:05.105Z,98523.00
2022-12-29T10:04:53.272Z,98495.00
2022-12-29T10:08:01.317Z,98516.00
2022-12-29T10:11:24.930Z,98503.00
2022-12-29T10:15:03.125Z,98496.00
2022-12-29T10:18:12.098Z,98485.00
2022-12-29T10:21:32.310Z,98477.00
2022-12-29T10:24:23.195Z,98477.00
2022-12-29T10:27:18.161Z,98485.00
2022-12-29T10:30:06.620Z,98497.00
2022-12-29T10:33:00.331Z,98481.00
2022-12-29T10:35:49.702Z,98492.00
2022-12-29T10:39:18.020Z,98499.00
2022-12-29T10:42:22.207Z,98486.00
2022-12-29T10:45:17.858Z,98479.00
2022-12-29T10:48:25.911Z,98495.00
2022-12-29T10:51:26.259Z,98496.00
2022-12-29T10:54:38.996Z,98485.00
2022-12-29T10:57:46.638Z,98474.00
2022-12-29T11:00:35.225Z,98453.00
2022-12-29T11:03:39.909Z,98457.00
2022-12-29T11:06:30.410Z,98455.00
2022-12-29T11:09:42.020Z,98460.00
2022-12-29T11:12:32.436Z,98460.00
2022-12-29T11:15:20.185Z,98457.00
2022-12-29T11:18:41.046Z,98470.00
2022-12-29T11:21:43.406Z,98468.00
2022-12-29T11:24:32.046Z,98473.00
2022-12-29T11:27:26.457Z,98475.00
2022-12-29T11:30:31.325Z,98466.00
2022-12-29T11:33:18.929Z,98457.00
2022-12-29T11:36:23.445Z,98458.00
2022-12-29T11:39:54.247Z,98444.00
2022-12-29T11:43:00.017Z,98448.00
2022-12-29T11:45:48.878Z,98439.00
2022-12-29T11:48:44.004Z,98441.00
2022-12-29T11:51:45.973Z,98427.00
2022-12-29T11:54:38.869Z,98419.00
2022-12-29T11:57:27.050Z,98415.00
2022-12-29T12:00:27.238Z,98397.00
2022-12-29T12:03:25.839Z,98412.00
2022-12-29T12:06:22.134Z,98403.00
2022-12-29T12:09:24.163Z,98399.00
2022-12-29T12:12:35.780Z,98400.00
2022-12-29T12:16:00.570Z,98395.00
2022-12-29T12:19:02.522Z,98389.00
2022-12-29T12:22:02.281Z,98372.00
2022-12-29T12:25:38.348Z,98373.00
2022-12-29T12:29:07.136Z,98371.00
2022-12-29T12:32:06.947Z,98365.00
2022-12-29T12:34:54.575Z,98367.00
2022-12-29T12:38:01.696Z,98363.00
2022-12-29T12:41:39.899Z,98346.00
2022-12-29T12:44:46.245Z,98361.00
2022-12-29T12:48:22.647Z,98353.00
2022-12-29T12:51:44.092Z,98356.00
2022-12-29T12:55:07.631Z,98355.00
2022-12-29T12:58:30.676Z,98362.00
2022-12-29T13:01:43.314Z,98348.00
2022-12-29T13:04:48.623Z,98364.00
2022-12-29T13:08:06.339Z,98353.00
2022-12-29T13:11:22.226Z,98347.00
2022-12-29T13:14:59.886Z,98365.00
2022-12-29T13:18:19.904Z,98350.00
2022-12-29T13:22:06.864Z,98344.00
2022-12-29T13:25:19.756Z,98372.00
2022-12-29T13:28:21.259Z,98362.00
2022-12-29T13:31:30.311Z,98346.00
2022-12-29T13:34:54.126Z,98365.00
2022-12-29T13:38:04.689Z,98344.00
2022-12-29T13:41:00.735Z,98348.00
2022-12-29T13:43:52.096Z,98369.00
2022-12-29T13:46:45.265Z,98357.00
2022-12-29T13:49:35.384Z,98349.00
2022-12-29T13:52:59.539Z,98390.00
2022-12-29T13:56:08.354Z,98370.00
2022-12-29T13:59:41.444Z,98348.00
2022-12-29T14:02:39.136Z,98389.00
2022-12-29T14:05:32.796Z,98396.00
2022-12-29T14:08:20.492Z,98378.00
2022-12-29T14:11:15.742Z,98397.00
2022-12-29T14:14:29.395Z,98397.00
2022-12-29T14:17:22.274Z,98402.00
2022-12-29T14:20:24.122Z,98407.00
2022-12-29T14:23:11.702Z,98405.00
2022-12-29T14:26:07.384Z,98410.00
2022-12-29T14:29:01.313Z,98390.00
2022-12-29T14:31:56.160Z,98387.00
2022-12-29T14:34:51.795Z,98400.00
2022-12-29T14:37:40.224Z,98410.00
2022-12-29T14:40:28.444Z,98390.00
2022-12-29T14:43:28.599Z,98383.00
2022-12-29T14:46:16.337Z,98397.00
2022-12-29T14:49:04.318Z,98378.00
2022-12-29T14:52:04.354Z,98368.00
2022-12-29T14:55:20.623Z,98375.00
2022-12-29T14:58:59.790Z,98384.00
2022-12-29T15:01:56.902Z,98385.00
2022-12-29T15:04:48.510Z,98383.00
2022-12-29T15:07:37.568Z,98374.00
2022-12-29T15:10:33.570Z,98390.00
2022-12-29T15:13:49.800Z,98396.00
2022-12-29T15:16:38.314Z,98391.00
2022-12-29T15:19:28.233Z,98397.00
2022-12-29T15:22:16.629Z,98403.00
2022-12-29T15:25:05.161Z,98385.00
2022-12-29T15:28:07.677Z,98400.00
2022-12-29T15:31:29.472Z,98390.00
2022-12-29T15:34:22.590Z,98390.00
2022-12-29T15:37:10.997Z,98385.00
2022-12-29T15:39:59.033Z,98389.00
2022-12-29T15:43:15.628Z,98394.00
2022-12-29T15:46:04.039Z,98403.00
2022-12-29T15:48:52.481Z,98390.00
2022-12-29T15:51:44.915Z,98404.00
2022-12-29T15:54:33.435Z,98395.00
2022-12-29T15:57:28.448Z,98387.00
2022-12-29T16:00:35.243Z,98391.00
2022-12-29T16:03:27.799Z,98396.00
2022-12-29T16:06:47.575Z,98391.00
2022-12-29T16:09:45.329Z,98395.00
2022-12-29T16:12:38.050Z,98401.00
2022-12-29T16:15:28.948Z,98406.00
2022-12-29T16:18:29.917Z,98411.00
2022-12-29T16:21:32.716Z,98401.00
2022-12-29T16:24:26.517Z,98407.00
2022-12-29T16:27:33.739Z,98402.00
2022-12-29T16:30:32.850Z,98410.00
2022-12-29T16:33:56.146Z,98412.00
2022-12-29T16:37:04.374Z,98411.00
2022-12-29T16:39:52.308Z,98412.00
2022-12-29T16:42:39.985Z,98403.00
2022-12-29T16:45:46.984Z,98409.00
2022-12-29T16:48:51.561Z,98403.00
2022-12-29T16:51:39.348Z,98408.00
2022-12-29T16:54:36.483Z,98407.00
2022-12-29T16:57:35.635Z,98402.00
2022-12-29T17:00:28.048Z,98406.00
2022-12-29T17:03:17.193Z,98408.00
2022-12-29T17:06:05.937Z,98409.00
2022-12-29T17:08:54.366Z,98415.00
2022-12-29T17:12:02.566Z,98421.00
2022-12-29T17:15:09.429Z,98397.00
2022-12-29T17:17:57.651Z,98413.00
2022-12-29T17:20:45.317Z,98395.00
2022-12-29T17:23:35.349Z,98412.00
2022-12-29T17:26:23.005Z,98422.00
2022-12-29T17:29:33.120Z,98410.00
2022-12-29T17:32:20.755Z,98413.00
2022-12-29T17:35:20.266Z,98419.00
2022-12-29T17:38:35.115Z,98404.00
2022-12-29T17:41:22.696Z,98418.00
2022-12-29T17:44:20.122Z,98415.00
2022-12-29T17:47:16.919Z,98428.00
2022-12-29T17:50:05.738Z,98422.00
2022-12-29T17:53:01.178Z,98420.00
2022-12-29T17:55:49.410Z,98422.00
2022-12-29T17:58:37.395Z,98423.00
2022-12-29T18:01:29.951Z,98419.00
2022-12-29T18:04:21.611Z,98418.00
2022-12-29T18:07:12.606Z,98426.00
2022-12-29T18:10:00.074Z,98408.00
2022-12-29T18:12:54.287Z,98425.00
2022-12-29T18:15:42.073Z,98431.00
2022-12-29T18:18:30.041Z,98434.00
2022-12-29T18:21:21.251Z,98434.00
2022-12-29T18:24:15.458Z,98434.00
2022-12-29T18:27:14.911Z,98428.00
2022-12-29T18:30:02.572Z,98437.00
2022-12-29T18:32:50.590Z,98432.00
2022-12-29T18:35:59.030Z,98439.00
2022-12-29T18:38:47.574Z,98444.00
2022-12-29T18:41:35.258Z,98441.00
2022-12-29T18:44:24.727Z,98437.00
2022-12-29T18:47:12.253Z,98440.00
2022-12-29T18:50:00.018Z,98445.00
2022-12-29T18:52:47.649Z,98436.00
2022-12-29T18:55:35.965Z,98438.00
2022-12-29T18:58:26.792Z,98436.00
2022-12-29T19:01:26.274Z,98444.00
2022-12-29T19:04:15.677Z,98440.00
2022-12-29T19:07:03.503Z,98436.00
2022-12-29T19:09:51.413Z,98434.00
2022-12-29T19:12:39.010Z,98441.00
2022-12-29T19:15:29.907Z,98444.00
2022-12-29T19:21:29.877Z,98436.00
2022-12-29T19:24:17.474Z,98444.00
2022-12-29T19:27:05.250Z,98442.00
2022-12-29T19:29:53.239Z,98436.00
2022-12-29T19:32:41.887Z,98433.00
2022-12-29T19:35:31.177Z,98438.00
2022-12-29T19:38:20.011Z,98443.00
2022-12-29T19:41:08.563Z,98434.00
2022-12-29T19:43:56.764Z,98429.00
2022-12-29T19:46:44.840Z,98428.00
2022-12-29T19:49:32.791Z,98435.00
2022-12-29T19:52:20.785Z,98438.00
2022-12-29T19:55:12.293Z,98436.00
2022-12-29T19:57:59.967Z,98435.00
2022-12-29T20:00:49.415Z,98425.00
2022-12-29T20:03:39.583Z,98433.00
2022-12-29T20:06:27.499Z,98427.00
2022-12-29T20:09:15.193Z,98442.00
2022-12-29T20:12:02.986Z,98450.00
2022-12-29T20:14:52.651Z,98441.00
2022-12-29T20:20:47.983Z,98445.00
2022-12-29T20:23:39.165Z,98440.00
2022-12-29T20:26:30.499Z,98445.00
2022-12-29T20:29:20.386Z,98433.00
2022-12-29T20:32:21.429Z,98426.00
2022-12-29T20:35:49.328Z,98427.00
2022-12-29T20:38:44.637Z,98424.00
2022-12-29T20:41:32.224Z,98419.00
2022-12-29T20:44:23.434Z,98423.00
2022-12-29T20:47:11.335Z,98417.00
2022-12-29T20:49:59.646Z,98422.00
2022-12-29T20:52:47.341Z,98432.00
2022-12-29T20:55:35.656Z,98427.00
2022-12-29T20:58:24.348Z,98423.00
2022-12-29T21:01:17.794Z,98417.00
2022-12-29T21:04:06.740Z,98413.00
2022-12-29T21:06:54.701Z,98412.00
2022-12-29T21:09:42.718Z,98416.00
2022-12-29T21:12:30.528Z,98415.00
2022-12-29T21:15:18.683Z,98415.00
2022-12-29T21:18:06.479Z,98416.00
2022-12-29T21:20:59.175Z,98413.00
2022-12-29T21:23:47.183Z,98401.00
2022-12-29T21:26:35.279Z,98402.00
2022-12-29T21:29:23.515Z,98406.00
2022-12-29T21:32:11.689Z,98406.00
2022-12-29T21:34:59.229Z,98405.00
2022-12-29T21:37:46.843Z,98414.00
2022-12-29T21:40:38.399Z,98414.00
2022-12-29T21:43:26.362Z,98417.00
2022-12-29T21:46:17.158Z,98422.00
2022-12-29T21:49:07.096Z,98408.00
2022-12-29T21:51:57.564Z,98420.00
2022-12-29T21:55:00.563Z,98419.00
2022-12-29T21:58:11.284Z,98422.00
2022-12-29T22:01:18.029Z,98417.00
2022-12-29T22:04:24.607Z,98415.00
2022-12-29T22:07:31.631Z,98418.00
2022-12-29T22:10:38.380Z,98411.00
2022-12-29T22:13:26.705Z,98414.00
2022-12-29T22:16:15.779Z,98412.00
2022-12-29T22:19:04.289Z,98405.00
2022-12-29T22:21:51.749Z,98409.00
2022-12-29T22:24:39.327Z,98411.00
2022-12-29T22:27:27.644Z,98408.00
2022-12-29T22:30:16.479Z,98409.00
2022-12-29T22:33:04.610Z,98414.00
2022-12-29T22:35:52.275Z,98414.00
2022-12-29T22:38:39.969Z,98419.00
2022-12-29T22:41:27.971Z,98407.00
2022-12-29T22:44:15.483Z,98409.00
2022-12-29T22:47:03.205Z,98402.00
2022-12-29T22:49:51.466Z,98404.00
2022-12-29T22:52:39.334Z,98404.00
2022-12-29T22:55:27.319Z,98395.00
2022-12-29T22:58:15.269Z,98401.00
2022-12-29T23:01:05.897Z,98394.00
2022-12-29T23:04:01.076Z,98404.00
2022-12-29T23:07:01.401Z,98400.00
2022-12-29T23:09:49.414Z,98392.00
2022-12-29T23:12:37.502Z,98397.00
2022-12-29T23:15:25.263Z,98394.00
2022-12-29T23:18:13.083Z,98390.00
2022-12-29T23:21:03.327Z,98384.00
2022-12-29T23:23:53.785Z,98378.00
2022-12-29T23:26:45.391Z,98384.00
2022-12-29T23:29:33.086Z,98384.00
2022-12-29T23:32:22.050Z,98391.00
2022-12-29T23:35:10.143Z,98397.00
2022-12-29T23:37:58.346Z,98398.00
2022-12-29T23:40:46.075Z,98399.00
2022-12-29T23:43:35.354Z,98392.00
2022-12-29T23:46:28.210Z,98391.00
2022-12-29T23:49:15.889Z,98385.00
2022-12-29T23:52:03.807Z,98392.00
2022-12-29T23:54:51.851Z,98392.00
2022-12-29T23:57:39.624Z,98392.00
